Latest Weather Observations for Darwin

IDD60801

Issued at 4:05 pm CST Saturday 19 April 2014 (issued every 30 minutes, with the page automatically refreshed every 10 minutes)

About weather observations | Map of weather stations | Latest weather observations for NT | Other Formats
Station Details ID: 014015 Name: DARWIN AIRPORT Lat: -12.42 Lon: 130.89 Height: 30.4 m
Data from the previous 72 hours. | See also: Recent months at Darwin
Date/Time
CST
Temp
°C
App
Temp
°C
Dew
Point
Rel
Hum
%
Delta-T
°C
Wind Press
QNH
hPa
Press
MSL
hPa
Rain
since 9 am
mm
Dir
 
Spd
km/h
Gust
km/h
Spd
kts
Gust
kts
19/04:00pm 32.4 33.2 20.6 49 7.9 E 17 20 9 11 1007.4 - 0.2
19/03:30pm 33.0 33.3 20.4 47 8.4 ENE 19 26 10 14 1007.4 - 0.2
19/03:00pm 32.6 32.3 20.3 48 8.2 ENE 22 32 12 17 1007.4 1007.1 0.2
19/02:30pm 32.7 33.6 20.8 49 8.0 ENE 17 22 9 12 1007.8 - 0.2
19/02:00pm 32.4 32.6 20.6 49 7.9 E 20 30 11 16 1008.2 - 0.2
19/01:30pm 32.0 30.8 20.8 51 7.5 ENE 28 33 15 18 1008.6 - 0.2
19/01:00pm 31.7 32.3 21.3 54 7.0 E 20 26 11 14 1009.2 - 0.2
19/12:30pm 31.1 32.1 22.1 58 6.1 ENE 20 30 11 16 1009.7 - 0.2
19/12:00pm 30.5 30.0 21.4 58 6.1 E 26 33 14 18 1010.3 1010.0 0.2
19/11:30am 29.9 28.9 21.2 59 5.8 E 28 33 15 18 1011.0 - 0.2
19/11:00am 29.4 29.8 21.7 63 5.2 E 22 28 12 15 1011.5 - 0.2
19/10:30am 29.1 29.9 21.8 64 4.9 E 20 28 11 15 1011.7 - 0.2
19/10:00am 28.7 30.0 22.7 70 4.1 E 20 26 11 14 1011.7 - 0.2
19/09:30am 27.6 28.6 22.1 72 3.7 E 20 26 11 14 1011.7 - 0.0
19/09:00am 26.9 28.5 22.1 75 3.2 E 17 22 9 12 1011.6 1011.3 3.4
19/08:30am 26.0 27.8 22.6 81 2.3 ESE 17 24 9 13 1011.6 - 3.4
19/08:00am 25.1 27.4 22.7 86 1.6 ESE 15 19 8 10 1011.6 - 3.4
19/07:30am 24.5 27.2 22.9 91 1.1 E 13 17 7 9 1011.4 - 3.4
19/07:00am 23.6 27.1 22.9 96 0.5 ESE 9 15 5 8 1011.2 - 3.4
19/06:30am 23.6 26.8 23.0 96 0.4 ESE 11 13 6 7 1011.0 - 3.4
19/06:00am 23.7 26.5 23.0 96 0.5 ESE 13 15 7 8 1010.9 1010.6 3.4
19/05:30am 23.7 26.9 23.0 96 0.5 SE 11 15 6 8 1010.6 - 3.4
19/05:00am 24.0 26.8 23.0 94 0.7 ESE 13 15 7 8 1010.4 - 3.4
19/04:30am 24.0 27.2 23.0 94 0.7 ESE 11 13 6 7 1010.2 - 3.4
19/04:00am 24.0 26.8 23.0 94 0.7 ESE 13 15 7 8 1010.2 - 3.4
19/03:30am 24.2 28.3 23.0 93 0.8 ESE 6 7 3 4 1010.5 - 3.4
19/03:00am 24.2 27.8 23.0 93 0.8 E 9 11 5 6 1010.5 1010.2 3.4
19/02:30am 24.3 27.5 23.1 93 0.8 E 11 15 6 8 1010.9 - 3.4
19/02:00am 24.3 26.4 23.1 93 0.8 E 17 20 9 11 1010.9 - 3.4
19/01:30am 24.4 26.5 23.1 92 0.9 E 17 22 9 12 1011.0 - 3.4
19/01:00am 24.5 26.1 22.9 91 1.1 ESE 19 22 10 12 1011.4 - 3.4
19/12:30am 24.6 27.0 23.0 91 1.1 ESE 15 19 8 10 1011.8 - 3.4
19/12:00am 24.5 26.5 22.9 91 1.1 E 17 20 9 11 1011.7 1011.4 3.4
 
Date/Time
CST
Temp
°C
App
Temp
°C
Dew
Point
Rel
Hum
%
Delta-T
°C
Wind Press
QNH
hPa
Press
MSL
hPa
Rain
since 9 am
mm
Dir
 
Spd
km/h
Gust
km/h
Spd
kts
Gust
kts
18/11:30pm 24.5 26.1 22.9 91 1.1 ESE 19 26 10 14 1012.1 - 3.4
18/11:00pm 24.6 25.5 22.7 89 1.3 E 22 28 12 15 1012.2 - 3.4
18/10:30pm 24.7 25.6 22.6 88 1.4 E 22 30 12 16 1012.0 - 3.4
18/10:00pm 24.6 26.5 22.7 89 1.3 SE 17 24 9 13 1012.0 - 3.4
18/09:30pm 24.9 26.9 23.0 89 1.3 ESE 17 22 9 12 1011.9 - 3.4
18/09:00pm 25.1 26.2 23.6 91 1.0 SE 24 30 13 16 1012.3 1012.0 3.4
18/08:30pm 25.9 25.3 23.3 85 1.8 E 32 37 17 20 1012.6 - 3.4
18/08:00pm 25.7 28.4 24.1 91 1.1 ENE 17 26 9 14 1012.0 - 3.4
18/07:30pm 25.4 29.4 23.8 91 1.1 ENE 9 11 5 6 1010.7 - 3.4
18/07:00pm 25.2 28.8 23.7 91 1.0 ENE 11 13 6 7 1010.5 - 3.4
18/06:30pm 25.3 28.8 23.5 90 1.2 NNE 11 15 6 8 1010.3 - 3.4
18/06:00pm 25.4 28.0 23.9 91 1.0 NE 17 20 9 11 1009.9 1009.6 3.4
18/05:30pm 25.5 27.8 23.4 88 1.4 ENE 17 20 9 11 1009.4 - 3.4
18/05:00pm 25.3 25.9 24.1 93 0.8 E 28 37 15 20 1009.7 - 3.4
18/04:45pm 26.2 28.0 23.6 85 1.8 ESE 20 28 11 15 1010.0 - 1.8
18/04:30pm 26.5 27.9 23.6 84 2.0 E 22 33 12 18 1009.4 - 1.8
18/04:00pm 26.2 28.3 23.1 83 2.1 E 17 20 9 11 1008.7 - 1.6
18/03:51pm 25.8 25.1 24.1 90 1.2 ESE 35 43 19 23 1008.8 - 1.6
18/03:47pm 25.4 24.2 23.3 88 1.4 ESE 35 41 19 22 1009.0 - 1.6
18/03:40pm 27.3 25.9 24.3 84 2.1 E 39 46 21 25 1009.0 - 0.2
18/03:30pm 30.2 32.4 24.2 70 4.2 NE 20 28 11 15 1008.7 - 0.2
18/03:00pm 31.3 32.9 22.9 61 5.8 NE 19 22 10 12 1008.5 1008.2 0.2
18/02:30pm 31.2 33.8 22.6 60 5.9 E 13 17 7 9 1008.8 - 0.2
18/02:00pm 31.0 33.4 23.0 62 5.5 E 15 22 8 12 1009.3 - 0.2
18/01:30pm 31.5 34.2 22.8 60 6.0 E 13 24 7 13 1009.6 - 0.2
18/01:00pm 30.8 33.6 23.6 65 5.0 E 15 22 8 12 1009.8 - 0.2
18/12:30pm 30.1 32.1 23.6 68 4.5 E 19 28 10 15 1010.4 - 0.2
18/12:00pm 29.7 31.2 23.0 67 4.6 E 20 30 11 16 1011.0 1010.7 0.2
18/11:30am 29.8 31.4 22.8 66 4.8 E 19 28 10 15 1011.4 - 0.2
18/11:00am 29.7 31.8 23.1 67 4.5 E 17 22 9 12 1011.7 - 0.2
18/10:30am 29.5 32.4 23.1 68 4.4 E 13 17 7 9 1011.9 - 0.0
18/10:00am 28.7 31.5 23.6 74 3.5 E 15 19 8 10 1011.9 - 0.0
18/09:30am 27.8 29.2 22.8 74 3.4 E 20 26 11 14 1012.0 - 0.0
18/09:00am 27.8 30.8 23.3 76 3.1 E 13 17 7 9 1011.7 1011.4 36.2
18/08:30am 26.4 29.5 23.5 84 2.0 E 13 19 7 10 1011.6 - 36.2
18/08:00am 25.4 28.9 23.5 89 1.3 ENE 11 13 6 7 1011.6 - 36.2
18/07:30am 24.8 28.8 23.8 94 0.7 E 9 11 5 6 1011.4 - 36.2
18/07:00am 24.5 28.4 23.6 95 0.6 ENE 9 11 5 6 1011.2 - 36.2
18/06:30am 24.4 28.6 23.4 94 0.7 NNE 7 9 4 5 1010.7 - 36.2
18/06:00am 24.5 28.2 23.2 92 0.9 N 9 11 5 6 1010.7 1010.4 36.2
18/05:30am 24.3 27.7 23.4 95 0.6 E 11 13 6 7 1010.4 - 36.2
18/05:00am 24.1 27.0 23.2 95 0.6 NE 13 15 7 8 1010.3 - 36.2
18/04:51am 24.1 26.0 23.4 96 0.5 E 19 28 10 15 1010.2 - 36.0
18/04:30am 23.8 24.8 22.9 95 0.6 E 22 30 12 16 1010.3 - 35.2
18/04:23am 23.5 23.3 22.8 96 0.5 E 28 46 15 25 1010.4 - 34.4
18/04:14am 24.2 22.7 22.7 91 1.0 E 35 43 19 23 1010.7 - 29.2
18/04:10am 25.3 24.8 22.9 86 1.6 E 30 41 16 22 1010.7 - 27.8
18/04:00am 25.8 27.4 23.3 86 1.7 E 20 30 11 16 1010.3 - 27.6
18/03:30am 26.3 30.6 24.3 89 1.4 E 9 11 5 6 1009.9 - 27.4
18/03:00am 26.3 31.2 24.6 90 1.2 SE 7 9 4 5 1010.1 1009.8 27.4
18/02:30am 26.3 31.4 25.0 92 0.9 SE 7 9 4 5 1010.1 - 27.4
18/02:00am 26.3 30.2 24.9 92 1.0 SE 13 17 7 9 1010.6 - 27.4
18/01:30am 27.0 32.2 25.1 89 1.3 SSW 7 9 4 5 1010.9 - 27.4
18/01:00am 27.7 32.1 25.0 85 1.9 W 11 11 6 6 1010.9 - 27.4
18/12:30am 27.4 31.8 25.0 87 1.7 WSW 11 13 6 7 1011.2 - 27.4
18/12:00am 27.8 31.9 24.5 82 2.3 W 11 15 6 8 1011.3 1011.0 27.4
 
Date/Time
CST
Temp
°C
App
Temp
°C
Dew
Point
Rel
Hum
%
Delta-T
°C
Wind Press
QNH
hPa
Press
MSL
hPa
Rain
since 9 am
mm
Dir
 
Spd
km/h
Gust
km/h
Spd
kts
Gust
kts
17/11:30pm 27.1 31.8 25.0 88 1.5 WNW 9 11 5 6 1011.2 - 27.4
17/11:00pm 27.2 31.6 25.1 88 1.5 WNW 11 11 6 6 1011.4 - 27.4
17/10:30pm 26.6 30.7 24.6 89 1.4 WNW 11 13 6 7 1011.4 - 27.4
17/10:00pm 26.7 31.1 25.0 90 1.2 NW 11 13 6 7 1011.5 - 27.4
17/09:30pm 27.1 31.9 25.1 89 1.4 NNE 9 11 5 6 1011.5 - 27.4
17/09:00pm 27.3 31.9 24.7 86 1.8 NNE 9 11 5 6 1011.3 1011.0 27.4
17/08:30pm 27.2 32.6 25.1 88 1.5 N 6 7 3 4 1011.0 - 27.4
17/08:00pm 27.2 32.3 24.9 87 1.6 N 7 9 4 5 1010.6 - 27.4
17/07:30pm 27.7 32.5 24.5 83 2.2 NNE 7 9 4 5 1010.2 - 27.4
17/07:00pm 28.0 32.7 25.0 84 2.1 NE 9 11 5 6 1009.9 - 27.4
17/06:30pm 28.5 32.8 24.3 78 2.9 N 9 11 5 6 1009.4 - 27.4
17/06:00pm 28.5 33.3 24.2 77 3.0 ENE 6 7 3 4 1008.9 1008.6 27.4
17/05:30pm 28.6 34.4 24.0 76 3.2 CALM 0 7 0 4 1008.6 - 27.4
17/05:00pm 29.2 33.5 23.7 72 3.8 NNE 7 11 4 6 1008.4 - 27.4
17/04:30pm 28.1 31.5 24.1 79 2.8 N 13 24 7 13 1008.4 - 27.4
17/04:00pm 28.5 31.8 23.9 76 3.2 N 13 19 7 10 1008.3 - 27.4
17/03:30pm 27.8 32.5 24.3 81 2.4 NNW 7 9 4 5 1008.4 - 27.4
17/03:06pm 25.3 30.1 24.4 95 0.6 SW 7 9 4 5 1008.8 - 27.4
17/03:00pm 24.6 28.7 24.0 96 0.4 S 9 - 5 - - 1008.5 27.0
17/02:57pm 24.5 28.5 23.8 96 0.5 SSE 9 13 5 7 1008.8 - 27.4
17/02:50pm 24.3 27.5 23.7 96 0.4 ESE 13 19 7 10 1008.9 - 27.2
17/02:37pm 24.5 23.5 23.6 95 0.6 ESE 35 44 19 24 1009.1 - 27.2
17/02:30pm 23.8 23.8 23.1 96 0.5 ESE 28 46 15 25 1009.5 - 26.4
17/02:22pm 24.4 25.0 23.5 95 0.6 ESE 26 41 14 22 1009.5 - 15.2
17/02:12pm 25.8 28.1 24.1 90 1.2 WNW 19 26 10 14 1009.4 - 1.8
17/02:08pm 27.1 29.6 24.5 86 1.8 WNW 19 26 10 14 1009.3 - 0.0
17/02:00pm 30.4 32.6 24.2 69 4.3 WNW 20 28 11 15 1009.2 - 0.0
17/01:30pm 31.3 33.4 23.8 64 5.2 N 19 24 10 13 1009.2 - 0.0
17/01:00pm 31.4 34.5 23.5 63 5.5 NW 13 19 7 10 1009.4 - 0.0
17/12:30pm 31.4 34.7 23.8 64 5.3 N 13 19 7 10 1009.9 - 0.0
17/12:00pm 31.1 34.7 23.1 62 5.5 N 9 13 5 7 1010.5 1010.2 0.0
17/11:30am 30.0 33.2 22.4 63 5.2 N 9 17 5 9 1011.0 - 0.0
17/11:00am 30.6 32.0 19.6 51 7.2 E 11 17 6 9 1011.4 - 0.0
17/10:30am 29.5 31.7 19.7 55 6.4 E 7 9 4 5 1011.5 - 0.0
17/10:00am 28.4 30.6 20.5 62 5.2 ESE 9 13 5 7 1011.4 - 0.0
17/09:30am 27.9 29.1 20.0 62 5.2 SE 13 15 7 8 1011.4 - 0.0
17/09:00am 27.9 29.4 19.8 61 5.3 SE 11 13 6 7 1011.0 1010.7 0.0
17/08:30am 27.6 29.5 20.6 65 4.6 SE 11 15 6 8 1010.9 - 0.0
17/08:00am 26.3 31.6 25.3 94 0.7 W 7 11 4 6 1010.7 - 0.0
17/07:30am 24.6 30.4 24.0 96 0.4 CALM 0 6 0 3 1010.7 - 0.0
17/07:00am 24.4 30.1 23.7 96 0.5 CALM 0 0 0 0 1010.5 - 0.0
17/06:30am 24.5 28.9 23.8 96 0.5 W 7 9 4 5 1010.2 - 0.0
17/06:00am 24.8 28.9 23.9 95 0.6 W 9 11 5 6 1009.9 1009.6 0.0
17/05:30am 24.8 28.9 23.9 95 0.6 W 9 11 5 6 1009.7 - 0.0
17/05:00am 25.3 29.1 24.1 93 0.8 W 11 13 6 7 1009.4 - 0.0
17/04:30am 25.5 29.8 24.2 92 0.9 W 9 11 5 6 1009.1 - 0.0
17/04:00am 26.7 30.1 24.1 86 1.8 W 13 15 7 8 1009.1 - 0.0
17/03:30am 25.2 29.1 24.2 94 0.7 W 11 11 6 6 1009.0 - 0.0
17/03:00am 25.1 28.9 24.1 94 0.7 WNW 11 11 6 6 1009.0 1008.7 0.0
17/02:30am 25.3 28.7 24.1 93 0.8 WNW 13 15 7 8 1009.3 - 0.0
17/02:00am 25.2 29.0 24.0 93 0.8 NW 11 11 6 6 1009.5 - 0.0
17/01:30am 25.1 29.6 23.9 93 0.8 NW 7 9 4 5 1009.9 - 0.0
17/01:00am 25.2 29.7 24.0 93 0.8 NW 7 7 4 4 1010.2 - 0.0
17/12:30am 25.2 29.9 24.0 93 0.8 NW 6 7 3 4 1010.5 - 0.0
17/12:00am 25.5 30.1 24.2 92 0.9 WNW 7 9 4 5 1010.5 1010.2 0.0
 
Date/Time
CST
Temp
°C
App
Temp
°C
Dew
Point
Rel
Hum
%
Delta-T
°C
Wind Press
QNH
hPa
Press
MSL
hPa
Rain
since 9 am
mm
Dir
 
Spd
km/h
Gust
km/h
Spd
kts
Gust
kts
16/11:30pm 26.0 30.4 24.4 91 1.1 W 9 9 5 5 1010.6 - 0.0
16/11:00pm 26.4 30.7 24.2 88 1.5 WNW 9 11 5 6 1010.6 - 0.0
16/10:30pm 25.9 30.0 24.0 89 1.3 NNW 9 11 5 6 1010.4 - 0.0
16/10:00pm 25.8 30.0 24.1 90 1.2 N 9 11 5 6 1010.5 - 0.0
16/09:30pm 26.3 30.6 24.3 89 1.4 N 9 11 5 6 1010.3 - 0.0
16/09:00pm 26.7 31.2 23.9 84 1.9 NW 7 9 4 5 1010.0 1009.7 0.0
16/08:30pm 27.1 31.4 23.6 81 2.4 W 7 9 4 5 1009.6 - 0.0
16/08:00pm 27.8 32.1 23.7 78 2.8 NNW 7 9 4 5 1009.2 - 0.0
16/07:30pm 28.3 32.3 23.7 76 3.2 N 9 11 5 6 1008.9 - 0.0
16/07:00pm 29.4 32.3 22.5 66 4.7 SSW 11 13 6 7 1008.7 - 0.0
16/06:30pm 30.3 33.0 22.2 62 5.5 NNW 11 13 6 7 1008.4 - 0.0
16/06:00pm 31.6 33.9 22.1 57 6.5 NNW 13 15 7 8 1008.3 1008.0 0.0
16/05:30pm 31.7 33.7 22.3 57 6.4 NNW 15 19 8 10 1008.0 - 0.0
16/05:00pm 32.4 35.5 23.5 59 6.2 NNW 13 19 7 10 1007.7 - 0.0
16/04:30pm 32.1 34.1 23.0 58 6.3 NNW 17 22 9 12 1007.7 - 0.0

Other Formats:

Comma delimited format used in spreadsheet applications
http://www.bom.gov.au/fwo/IDD60801/IDD60801.94120.axf

JavaScript Object Notation format (JSON) in row-major order
http://www.bom.gov.au/fwo/IDD60801/IDD60801.94120.json